createdAt,value
2018-04-17T00:01:33.692Z,34.30
2018-04-17T00:04:01.253Z,35.40
2018-04-17T00:06:28.829Z,36.33
2018-04-17T00:08:57.135Z,35.25
2018-04-17T00:11:24.734Z,34.42
2018-04-17T00:13:52.304Z,33.03
2018-04-17T00:16:20.659Z,34.80
2018-04-17T00:18:48.239Z,36.10
2018-04-17T00:21:15.806Z,32.40
2018-04-17T00:23:43.353Z,32.10
2018-04-17T00:26:10.904Z,30.25
2018-04-17T00:28:38.450Z,32.08
2018-04-17T00:31:06.789Z,32.53
2018-04-17T00:33:34.360Z,31.98
2018-04-17T00:36:01.911Z,34.92
2018-04-17T00:38:29.482Z,29.58
2018-04-17T00:40:57.031Z,30.80
2018-04-17T00:43:24.570Z,30.00
2018-04-17T00:45:52.111Z,32.05
2018-04-17T00:48:20.508Z,31.83
2018-04-17T00:50:48.089Z,32.35
2018-04-17T00:53:27.531Z,33.50
2018-04-17T00:55:55.088Z,31.08
2018-04-17T00:58:22.670Z,31.50
2018-04-17T01:00:50.231Z,34.58
2018-04-17T01:03:17.803Z,33.85
2018-04-17T01:05:45.387Z,32.88
2018-04-17T01:08:12.940Z,31.65
2018-04-17T01:10:40.475Z,33.88
2018-04-17T01:13:08.011Z,31.58
2018-04-17T01:15:36.351Z,32.30
2018-04-17T01:18:03.952Z,32.05
2018-04-17T01:20:32.462Z,34.10
2018-04-17T01:23:00.039Z,34.25
2018-04-17T01:25:27.613Z,39.53
2018-04-17T01:27:55.164Z,39.08
2018-04-17T01:30:22.796Z,39.65
2018-04-17T01:32:51.111Z,44.45
2018-04-17T01:35:18.661Z,44.35
2018-04-17T01:37:46.217Z,44.80
2018-04-17T01:40:13.771Z,40.42
2018-04-17T01:42:42.087Z,44.53
2018-04-17T01:45:09.662Z,45.30
2018-04-17T01:47:37.212Z,51.22
2018-04-17T01:50:04.777Z,46.78
2018-04-17T01:52:32.322Z,46.53
2018-04-17T01:54:59.895Z,49.03
2018-04-17T01:57:27.476Z,54.45
2018-04-17T01:59:55.051Z,49.20
2018-04-17T02:02:22.600Z,49.42
2018-04-17T02:04:50.187Z,52.80
2018-04-17T02:07:17.815Z,53.83
2018-04-17T02:09:45.400Z,57.40
2018-04-17T02:12:12.954Z,53.35
2018-04-17T02:14:40.532Z,53.40
2018-04-17T02:17:08.088Z,47.38
2018-04-17T02:19:35.633Z,53.55
2018-04-17T02:22:03.248Z,53.60
2018-04-17T02:24:30.799Z,49.90
2018-04-17T02:26:58.361Z,52.05
2018-04-17T02:29:25.908Z,46.30
2018-04-17T02:31:53.460Z,48.28
2018-04-17T02:34:21.012Z,51.85
2018-04-17T02:36:48.589Z,53.25
2018-04-17T02:39:16.148Z,56.35
2018-04-17T02:41:43.699Z,53.95
2018-04-17T02:44:12.062Z,54.65
2018-04-17T02:46:39.638Z,51.13
2018-04-17T02:49:07.956Z,52.33
2018-04-17T02:51:35.507Z,59.72
2018-04-17T02:54:03.086Z,59.67
2018-04-17T02:56:30.650Z,58.22
2018-04-17T02:58:58.207Z,57.17
2018-04-17T03:01:25.756Z,58.75
2018-04-17T03:03:53.312Z,63.75
2018-04-17T03:06:21.635Z,67.15
2018-04-17T03:08:49.233Z,67.53
2018-04-17T03:11:16.796Z,63.85
2018-04-17T03:13:44.369Z,61.85
2018-04-17T03:16:11.937Z,65.78
2018-04-17T03:18:40.283Z,65.25
2018-04-17T03:21:07.925Z,63.65
2018-04-17T03:23:35.478Z,52.97
2018-04-17T03:26:03.038Z,60.95
2018-04-17T03:28:30.704Z,58.47
2018-04-17T03:30:58.250Z,63.85
2018-04-17T03:33:26.605Z,66.32
2018-04-17T03:35:54.154Z,68.20
2018-04-17T03:38:21.732Z,70.22
2018-04-17T03:40:49.286Z,63.25
2018-04-17T03:43:16.826Z,66.75
2018-04-17T03:45:44.390Z,60.30
2018-04-17T03:48:11.943Z,59.47
2018-04-17T03:50:39.487Z,61.50
2018-04-17T03:53:07.808Z,56.40
2018-04-17T03:55:35.379Z,65.90
2018-04-17T03:58:02.986Z,58.13
2018-04-17T04:00:31.319Z,59.35
2018-04-17T04:02:58.867Z,65.18
2018-04-17T04:05:26.427Z,60.97
2018-04-17T04:07:53.981Z,63.08
2018-04-17T04:10:21.546Z,66.78
2018-04-17T04:12:49.143Z,63.47
2018-04-17T04:15:16.696Z,71.22
2018-04-17T04:17:56.067Z,72.15
2018-04-17T04:20:35.434Z,79.62
2018-04-17T04:23:14.998Z,77.15
2018-04-17T04:28:58.447Z,75.35
2018-04-17T04:31:26.044Z,83.50
2018-04-17T04:33:53.616Z,80.62
2018-04-17T04:36:21.962Z,78.05
2018-04-17T04:38:49.523Z,79.95
2018-04-17T04:41:17.070Z,84.05
2018-04-17T04:43:44.641Z,78.03
2018-04-17T04:46:12.188Z,83.15
2018-04-17T04:48:39.769Z,89.10
2018-04-17T04:51:07.329Z,80.38
2018-04-17T04:53:34.875Z,82.22
2018-04-17T04:56:02.437Z,84.62
2018-04-17T04:58:29.982Z,84.20
2018-04-17T05:00:58.287Z,85.68
2018-04-17T05:03:25.851Z,86.22
2018-04-17T05:05:53.436Z,79.72
2018-04-17T05:08:21.017Z,82.18
2018-04-17T05:10:48.620Z,83.68
2018-04-17T05:13:16.960Z,81.32
2018-04-17T05:15:44.530Z,82.40
2018-04-17T05:18:12.111Z,79.85
2018-04-17T05:20:39.671Z,79.30
2018-04-17T05:23:07.227Z,72.57
2018-04-17T05:25:34.798Z,77.47
2018-04-17T05:28:02.346Z,75.50
2018-04-17T05:30:29.886Z,72.68
2018-04-17T05:32:57.466Z,67.85
2018-04-17T05:35:25.049Z,68.10
2018-04-17T05:37:52.593Z,73.70
2018-04-17T05:40:20.135Z,67.43
2018-04-17T05:42:47.695Z,70.78
2018-04-17T05:45:15.276Z,72.32
2018-04-17T05:47:42.864Z,68.93
2018-04-17T05:50:10.490Z,65.10
2018-04-17T05:52:38.779Z,67.82
2018-04-17T05:55:06.349Z,62.53
2018-04-17T05:57:33.909Z,66.53
2018-04-17T06:00:01.505Z,59.58
2018-04-17T06:02:29.054Z,63.45
2018-04-17T06:04:56.607Z,58.40
2018-04-17T06:07:24.147Z,59.08
2018-04-17T06:09:51.728Z,56.58
2018-04-17T06:12:19.292Z,57.95
2018-04-17T06:14:46.880Z,60.03
2018-04-17T06:17:14.422Z,60.60
2018-04-17T06:19:41.970Z,61.65
2018-04-17T06:22:09.549Z,59.13
2018-04-17T06:24:37.098Z,63.67
2018-04-17T06:27:04.651Z,63.55
2018-04-17T06:29:32.969Z,62.10
2018-04-17T06:32:00.530Z,61.50
2018-04-17T06:34:28.074Z,57.17
2018-04-17T06:36:55.629Z,56.53
2018-04-17T06:39:23.971Z,55.95
2018-04-17T06:41:51.575Z,56.40
2018-04-17T06:44:19.890Z,58.90
2018-04-17T06:46:47.453Z,53.50
2018-04-17T06:49:15.003Z,53.97
2018-04-17T06:51:42.632Z,55.38
2018-04-17T06:54:10.952Z,50.35
2018-04-17T06:56:38.518Z,52.17
2018-04-17T06:59:06.096Z,52.78
2018-04-17T07:01:34.439Z,53.30
2018-04-17T07:04:02.780Z,50.22
2018-04-17T07:06:30.331Z,48.60
2018-04-17T07:08:57.899Z,49.45
2018-04-17T07:11:25.445Z,48.05
2018-04-17T07:13:53.003Z,46.88
2018-04-17T07:16:20.560Z,49.20
2018-04-17T07:18:48.127Z,47.80
2018-04-17T07:21:15.684Z,49.13
2018-04-17T07:23:43.298Z,49.17
2018-04-17T07:26:10.814Z,50.03
2018-04-17T07:28:38.402Z,47.22
2018-04-17T07:31:05.947Z,42.83
2018-04-17T07:33:33.523Z,44.58
2018-04-17T07:36:01.072Z,42.03
2018-04-17T07:38:28.606Z,42.47
2018-04-17T07:40:56.940Z,43.08
2018-04-17T07:43:24.506Z,43.67
2018-04-17T07:45:52.055Z,42.30
2018-04-17T07:48:31.511Z,40.40
2018-04-17T07:50:59.095Z,42.78
2018-04-17T07:53:26.675Z,44.75
2018-04-17T07:55:55.010Z,42.38
2018-04-17T07:58:22.583Z,38.15
2018-04-17T08:00:50.151Z,40.40
2018-04-17T08:03:17.711Z,39.28
2018-04-17T08:05:45.274Z,41.50
2018-04-17T08:08:12.856Z,39.80
2018-04-17T08:10:40.447Z,39.92
2018-04-17T08:13:08.774Z,40.78
2018-04-17T08:15:36.313Z,40.42
2018-04-17T08:18:03.865Z,39.05
2018-04-17T08:20:32.179Z,40.85
2018-04-17T08:22:59.748Z,39.20
2018-04-17T08:25:27.313Z,41.10
2018-04-17T08:27:55.062Z,38.58
2018-04-17T08:30:22.643Z,36.58
2018-04-17T08:32:50.195Z,35.10
2018-04-17T08:35:17.756Z,35.55
2018-04-17T08:37:45.308Z,36.30
2018-04-17T08:40:13.648Z,34.40
2018-04-17T08:42:41.273Z,36.38
2018-04-17T08:45:09.557Z,37.60
2018-04-17T08:47:37.126Z,36.50
2018-04-17T08:50:04.670Z,37.65
2018-04-17T08:52:32.230Z,38.47
2018-04-17T08:54:59.769Z,36.67
2018-04-17T08:57:27.319Z,36.17
2018-04-17T08:59:54.909Z,40.28
2018-04-17T09:02:23.220Z,36.50
2018-04-17T09:04:50.791Z,39.78
2018-04-17T09:07:18.367Z,35.72
2018-04-17T09:09:45.943Z,35.88
2018-04-17T09:12:13.513Z,34.58
2018-04-17T09:14:41.102Z,34.40
2018-04-17T09:17:08.732Z,34.63
2018-04-17T09:19:36.251Z,35.20
2018-04-17T09:22:04.589Z,33.00
2018-04-17T09:24:32.157Z,34.35
2018-04-17T09:27:00.471Z,33.63
2018-04-17T09:29:28.807Z,33.00
2018-04-17T09:31:56.392Z,34.33
2018-04-17T09:34:23.992Z,34.33
2018-04-17T09:36:52.327Z,35.25
2018-04-17T09:39:19.939Z,32.67
2018-04-17T09:41:47.514Z,33.17
2018-04-17T09:44:15.058Z,33.45
2018-04-17T09:46:43.411Z,34.22
2018-04-17T09:49:10.966Z,40.20
2018-04-17T09:51:38.583Z,32.40
2018-04-17T09:54:06.135Z,32.53
2018-04-17T09:56:34.451Z,35.63
2018-04-17T09:59:02.004Z,35.47
2018-04-17T10:01:29.575Z,34.28
2018-04-17T10:03:57.151Z,34.47
2018-04-17T10:06:24.749Z,36.65
2018-04-17T10:08:52.319Z,33.95
2018-04-17T10:11:20.653Z,33.28
2018-04-17T10:13:48.226Z,32.53
2018-04-17T10:16:15.779Z,33.85
2018-04-17T10:18:43.328Z,34.45
2018-04-17T10:21:10.908Z,36.20
2018-04-17T10:23:38.547Z,40.30
2018-04-17T10:26:06.864Z,33.55
2018-04-17T10:28:34.435Z,34.22
2018-04-17T10:31:01.981Z,32.05
2018-04-17T10:33:29.557Z,33.92
2018-04-17T10:35:57.124Z,30.80
2018-04-17T10:38:24.676Z,31.35
2018-04-17T10:40:52.250Z,31.27
2018-04-17T10:43:19.827Z,34.60
2018-04-17T10:45:47.423Z,32.17
2018-04-17T10:48:14.979Z,32.45
2018-04-17T10:50:42.541Z,32.50
2018-04-17T10:53:10.082Z,32.20
2018-04-17T10:55:37.627Z,30.08
2018-04-17T10:58:05.260Z,29.27
2018-04-17T11:00:32.809Z,29.60
2018-04-17T11:03:01.162Z,31.33
2018-04-17T11:05:28.743Z,31.15
2018-04-17T11:07:56.299Z,30.48
2018-04-17T11:10:23.921Z,29.60
2018-04-17T11:12:51.450Z,29.35
2018-04-17T11:15:19.003Z,28.75
2018-04-17T11:17:46.561Z,29.77
2018-04-17T11:20:14.129Z,24.73
2018-04-17T11:22:41.684Z,26.75
2018-04-17T11:25:09.239Z,26.12
2018-04-17T11:27:36.777Z,28.95
2018-04-17T11:30:04.388Z,28.15
2018-04-17T11:32:31.958Z,27.52
2018-04-17T11:34:59.512Z,26.80
2018-04-17T11:37:27.083Z,27.90
2018-04-17T11:39:54.663Z,27.35
2018-04-17T11:42:23.024Z,25.95
2018-04-17T11:44:50.562Z,25.98
2018-04-17T11:47:18.097Z,26.08
2018-04-17T11:49:45.644Z,28.05
2018-04-17T11:52:13.974Z,27.65
2018-04-17T11:54:41.582Z,26.25
2018-04-17T11:57:09.919Z,23.80
2018-04-17T11:59:38.048Z,24.75
2018-04-17T12:02:06.371Z,23.75
2018-04-17T12:04:33.947Z,23.33
2018-04-17T12:07:01.519Z,22.52
2018-04-17T12:09:29.324Z,24.42
2018-04-17T12:11:57.679Z,24.95
2018-04-17T12:14:25.234Z,24.75
2018-04-17T12:16:52.809Z,24.42
2018-04-17T12:19:20.427Z,25.50
2018-04-17T12:21:48.019Z,26.25
2018-04-17T12:24:15.562Z,27.62
2018-04-17T12:26:43.134Z,24.63
2018-04-17T12:29:10.755Z,26.70
2018-04-17T12:31:39.094Z,25.37
2018-04-17T12:34:06.668Z,26.10
2018-04-17T12:36:34.240Z,25.02
2018-04-17T12:39:01.819Z,27.30
2018-04-17T12:41:29.440Z,26.05
2018-04-17T12:43:57.010Z,25.08
2018-04-17T12:46:24.611Z,27.05
2018-04-17T12:48:52.155Z,25.15
2018-04-17T12:51:19.727Z,24.87
2018-04-17T12:53:47.279Z,24.37
2018-04-17T12:56:14.855Z,25.05
2018-04-17T12:58:42.407Z,23.27
2018-04-17T13:01:09.961Z,24.23
2018-04-17T13:03:38.146Z,22.20
2018-04-17T13:06:05.709Z,21.95
2018-04-17T13:08:33.336Z,23.33
2018-04-17T13:11:00.893Z,21.20
2018-04-17T13:13:28.444Z,21.77
2018-04-17T13:15:56.778Z,20.55
2018-04-17T13:18:24.313Z,21.40
2018-04-17T13:20:51.860Z,21.37
2018-04-17T13:23:20.202Z,21.87
2018-04-17T13:25:47.819Z,22.95
2018-04-17T13:28:15.353Z,19.85
2018-04-17T13:30:42.898Z,20.05
2018-04-17T13:33:10.447Z,22.10
2018-04-17T13:35:38.022Z,18.17
2018-04-17T13:38:05.580Z,21.23
2018-04-17T13:40:33.143Z,19.50
2018-04-17T13:43:01.493Z,20.55
2018-04-17T13:45:29.029Z,19.08
2018-04-17T13:47:57.350Z,18.15
2018-04-17T13:50:24.917Z,19.23
2018-04-17T13:52:52.492Z,19.60
2018-04-17T13:55:20.046Z,20.52
2018-04-17T13:57:47.613Z,21.70
2018-04-17T14:00:15.172Z,21.62
2018-04-17T14:02:42.742Z,21.20
2018-04-17T14:05:10.308Z,19.05
2018-04-17T14:07:37.855Z,18.27
2018-04-17T14:10:05.418Z,18.08
2018-04-17T14:12:32.991Z,15.57
2018-04-17T14:15:00.562Z,19.25
2018-04-17T14:17:28.170Z,17.42
2018-04-17T14:19:55.691Z,15.70
2018-04-17T14:22:23.272Z,15.90
2018-04-17T14:24:50.800Z,16.30
2018-04-17T14:27:18.330Z,17.05
2018-04-17T14:29:45.865Z,17.08
2018-04-17T14:32:13.431Z,18.55
2018-04-17T14:34:40.993Z,18.20
2018-04-17T14:37:08.558Z,17.60
2018-04-17T14:39:36.126Z,16.17
2018-04-17T14:42:03.678Z,19.00
2018-04-17T14:44:31.221Z,19.77
2018-04-17T14:46:58.780Z,20.37
2018-04-17T14:49:26.334Z,19.08
2018-04-17T14:51:53.878Z,19.20
2018-04-17T14:54:22.226Z,20.85
2018-04-17T14:56:49.797Z,21.23
2018-04-17T14:59:17.358Z,18.73
2018-04-17T15:01:44.913Z,20.90
2018-04-17T15:04:12.464Z,18.52
2018-04-17T15:06:40.022Z,17.33
2018-04-17T15:09:07.587Z,14.32
2018-04-17T15:11:35.127Z,15.25
2018-04-17T15:14:02.676Z,15.38
2018-04-17T15:16:30.981Z,14.60
2018-04-17T15:18:58.541Z,15.10
2018-04-17T15:21:26.102Z,11.35
2018-04-17T15:23:53.646Z,11.30
2018-04-17T15:26:21.958Z,11.30
2018-04-17T15:28:49.521Z,10.93
2018-04-17T15:31:17.064Z,12.02
2018-04-17T15:33:45.394Z,13.32
2018-04-17T15:36:12.939Z,13.70
2018-04-17T15:38:41.369Z,12.13
2018-04-17T15:41:08.920Z,12.70
2018-04-17T15:43:36.462Z,13.15
2018-04-17T15:46:04.008Z,12.63
2018-04-17T15:48:31.569Z,14.65
2018-04-17T15:50:59.136Z,14.50
2018-04-17T15:53:26.690Z,12.82
2018-04-17T15:55:54.251Z,13.30
2018-04-17T15:58:21.802Z,12.30
2018-04-17T16:00:50.131Z,13.85
2018-04-17T16:03:17.689Z,12.60
2018-04-17T16:05:45.254Z,11.95
2018-04-17T16:08:12.840Z,13.02
2018-04-17T16:10:40.411Z,12.25
2018-04-17T16:13:07.990Z,11.15
2018-04-17T16:15:35.580Z,12.65
2018-04-17T16:18:03.959Z,11.20
2018-04-17T16:20:32.311Z,10.75
2018-04-17T16:22:59.849Z,13.30
2018-04-17T16:25:27.391Z,11.60
2018-04-17T16:27:54.978Z,12.05
2018-04-17T16:30:22.576Z,11.55
2018-04-17T16:32:50.131Z,13.15
2018-04-17T16:35:17.678Z,12.37
2018-04-17T16:37:45.244Z,12.73
2018-04-17T16:40:12.781Z,13.45
2018-04-17T16:42:40.354Z,11.70
2018-04-17T16:45:07.923Z,13.68
2018-04-17T16:47:35.523Z,13.13
2018-04-17T16:50:03.119Z,11.07
2018-04-17T16:52:30.699Z,10.60
2018-04-17T16:54:58.260Z,11.63
2018-04-17T16:57:25.834Z,12.30
2018-04-17T16:59:53.406Z,13.40
2018-04-17T17:02:20.987Z,13.43
2018-04-17T17:04:49.325Z,12.02
2018-04-17T17:07:16.875Z,12.63
2018-04-17T17:09:45.210Z,11.43
2018-04-17T17:12:12.783Z,14.60
2018-04-17T17:14:40.344Z,14.60
2018-04-17T17:17:07.938Z,12.37
2018-04-17T17:19:35.482Z,10.50
2018-04-17T17:22:03.016Z,12.25
2018-04-17T17:24:30.562Z,14.45
2018-04-17T17:26:58.158Z,11.75
2018-04-17T17:29:25.707Z,13.00
2018-04-17T17:31:53.245Z,12.95
2018-04-17T17:34:20.816Z,11.93
2018-04-17T17:36:48.373Z,12.20
2018-04-17T17:39:15.962Z,10.70
2018-04-17T17:41:43.567Z,10.75
2018-04-17T17:44:11.156Z,8.98
2018-04-17T17:46:39.487Z,9.15
2018-04-17T17:49:07.037Z,8.40
2018-04-17T17:51:34.638Z,10.05
2018-04-17T17:54:02.184Z,9.50
2018-04-17T17:56:29.773Z,10.77
2018-04-17T17:58:58.133Z,8.80
2018-04-17T18:01:25.685Z,10.10
2018-04-17T18:03:53.241Z,10.30
2018-04-17T18:06:20.835Z,13.18
2018-04-17T18:08:48.393Z,11.23
2018-04-17T18:11:15.943Z,12.90
2018-04-17T18:13:43.559Z,13.25
2018-04-17T18:16:11.865Z,14.63
2018-04-17T18:18:39.406Z,13.00
2018-04-17T18:21:07.791Z,14.15
2018-04-17T18:23:36.138Z,15.25
2018-04-17T18:26:03.707Z,13.43
2018-04-17T18:28:31.252Z,14.93
2018-04-17T18:30:58.850Z,16.10
2018-04-17T18:33:26.428Z,19.87
2018-04-17T18:35:54.739Z,18.83
2018-04-17T18:38:22.307Z,18.80
2018-04-17T18:40:49.871Z,22.35
2018-04-17T18:43:17.442Z,21.48
2018-04-17T18:45:45.041Z,21.58
2018-04-17T18:48:12.618Z,21.50
2018-04-17T18:50:40.179Z,18.27
2018-04-17T18:53:07.742Z,18.60
2018-04-17T18:55:35.300Z,18.55
2018-04-17T18:58:02.865Z,16.48
2018-04-17T19:00:30.431Z,17.70
2018-04-17T19:02:57.998Z,16.55
2018-04-17T19:05:25.571Z,17.40
2018-04-17T19:07:53.139Z,19.08
2018-04-17T19:10:20.685Z,18.73
2018-04-17T19:12:48.250Z,16.02
2018-04-17T19:15:15.818Z,14.95
2018-04-17T19:17:43.362Z,15.25
2018-04-17T19:20:10.916Z,15.65
2018-04-17T19:22:38.466Z,15.73
2018-04-17T19:25:05.997Z,15.35
2018-04-17T19:27:34.330Z,16.70
2018-04-17T19:30:01.876Z,17.52
2018-04-17T19:32:29.437Z,16.23
2018-04-17T19:34:57.009Z,16.27
2018-04-17T19:37:24.559Z,17.58
2018-04-17T19:39:52.093Z,16.62
2018-04-17T19:42:20.405Z,16.33
2018-04-17T19:44:47.979Z,17.00
2018-04-17T19:47:15.562Z,16.87
2018-04-17T19:49:43.116Z,17.02
2018-04-17T19:52:10.769Z,18.15
2018-04-17T19:54:38.305Z,17.98
2018-04-17T19:57:06.664Z,16.17
2018-04-17T19:59:34.163Z,16.75
2018-04-17T20:02:01.689Z,18.98
2018-04-17T20:04:29.233Z,24.48
2018-04-17T20:06:56.799Z,23.45
2018-04-17T20:09:24.406Z,25.10
2018-04-17T20:11:52.700Z,22.13
2018-04-17T20:14:20.234Z,21.12
2018-04-17T20:16:47.802Z,17.67
2018-04-17T20:19:16.104Z,17.92
2018-04-17T20:21:44.993Z,18.50
2018-04-17T20:24:13.878Z,16.92
2018-04-17T20:26:42.766Z,18.40
2018-04-17T20:29:11.654Z,17.55
2018-04-17T20:31:40.602Z,17.30
2018-04-17T20:34:09.480Z,17.58
2018-04-17T20:36:38.414Z,17.75
2018-04-17T20:39:07.325Z,17.90
2018-04-17T20:41:36.259Z,15.30
2018-04-17T20:44:05.194Z,15.80
2018-04-17T20:46:34.134Z,15.90
2018-04-17T20:49:03.099Z,14.87
2018-04-17T20:51:32.003Z,15.50
2018-04-17T20:54:00.925Z,15.05
2018-04-17T20:56:29.848Z,15.77
2018-04-17T20:58:58.783Z,16.80
2018-04-17T21:01:27.665Z,15.70
2018-04-17T21:03:56.554Z,15.05
2018-04-17T21:06:25.469Z,17.12
2018-04-17T21:08:54.399Z,15.73
2018-04-17T21:11:23.340Z,15.75
2018-04-17T21:13:52.263Z,17.17
2018-04-17T21:16:21.192Z,16.35
2018-04-17T21:18:50.099Z,16.37
2018-04-17T21:21:18.989Z,15.00
2018-04-17T21:23:47.927Z,14.35
2018-04-17T21:26:16.841Z,14.18
2018-04-17T21:28:45.762Z,15.65
2018-04-17T21:31:14.730Z,16.70
2018-04-17T21:33:43.622Z,17.98
2018-04-17T21:36:12.547Z,17.27
2018-04-17T21:38:41.484Z,14.70
2018-04-17T21:41:10.405Z,15.50
2018-04-17T21:43:39.296Z,14.90
2018-04-17T21:46:08.215Z,15.68
2018-04-17T21:48:37.106Z,16.15
2018-04-17T21:51:05.990Z,16.00
2018-04-17T21:53:34.906Z,17.55
2018-04-17T21:56:03.803Z,16.73
2018-04-17T21:58:32.732Z,15.40
2018-04-17T22:01:01.669Z,17.05
2018-04-17T22:03:30.562Z,18.55
2018-04-17T22:05:59.453Z,19.92
2018-04-17T22:08:28.339Z,18.42
2018-04-17T22:10:57.270Z,22.67
2018-04-17T22:13:26.203Z,21.75
2018-04-17T22:15:55.098Z,21.50
2018-04-17T22:18:23.995Z,18.85
2018-04-17T22:20:52.882Z,19.65
2018-04-17T22:23:21.810Z,19.48
2018-04-17T22:25:50.712Z,17.25
2018-04-17T22:28:19.646Z,18.15
2018-04-17T22:30:48.523Z,20.05
2018-04-17T22:33:17.505Z,18.95
2018-04-17T22:35:46.402Z,18.60
2018-04-17T22:38:15.330Z,19.92
2018-04-17T22:40:44.234Z,18.90
2018-04-17T22:43:13.150Z,19.02
2018-04-17T22:45:42.082Z,18.60
2018-04-17T22:48:11.014Z,18.58
2018-04-17T22:50:39.925Z,18.10
2018-04-17T22:53:08.853Z,20.40
2018-04-17T22:55:37.760Z,19.67
2018-04-17T22:58:06.686Z,20.00
2018-04-17T23:00:35.601Z,19.87
2018-04-17T23:03:04.493Z,17.65
2018-04-17T23:05:33.438Z,18.80
2018-04-17T23:08:02.354Z,17.92
2018-04-17T23:10:31.270Z,19.37
2018-04-17T23:13:00.160Z,20.42
2018-04-17T23:15:29.069Z,20.00
2018-04-17T23:17:57.963Z,21.05
2018-04-17T23:20:26.846Z,20.52
2018-04-17T23:22:55.724Z,21.75
2018-04-17T23:25:24.614Z,22.25
2018-04-17T23:27:53.502Z,21.52
2018-04-17T23:30:22.400Z,20.75
2018-04-17T23:32:51.317Z,19.23
2018-04-17T23:35:20.316Z,19.92
2018-04-17T23:37:49.213Z,20.40
2018-04-17T23:40:18.130Z,20.67
2018-04-17T23:42:47.009Z,21.05
2018-04-17T23:45:15.899Z,22.48
2018-04-17T23:47:44.776Z,21.85
2018-04-17T23:50:13.737Z,23.65
2018-04-17T23:52:42.675Z,23.67
2018-04-17T23:55:11.585Z,25.25
2018-04-17T23:57:40.472Z,23.05
